Strona główna
METAR-TAF:

METAR-TAF

Lotnisko :

Port lotniczy Katowice-Pyrzowice

Katowice, Polska

Szerokość geograficzna: 50-28-27N, Długość geograficzna: 019-04-48E, wysokość: 284 m

Aktualna obserwacja pogody

Raport powstał 25 minut temu, godzina 09:30 UTC
Wiatr 8 kt od wschód
Temperatura 8°C
Wilgotność 71%
Ciśnienie 1018 hPa
Widzialność 10 km lub więcej
Brak chmur poniżej 1500 m i brak chmur cumulonimbus

METAR: EPKT 200930Z 08008KT CAVOK 08/03 Q1018

czas: 10:55 (09:55 UTC)

Prognoza

Raport powstał 4 godziny i 25 minut temu, godzina 05:30 UTC
Prognoza ważna od 20 godzina 06 UTC do 21 godzina 06 UTC
Wiatr 3 kt od wschodnio-północny wschód
Widzialność: 5000 m
zamglenie
Przejściowo
od 20 godzina 06 UTC do 20 godzina 08 UTC
Widzialność: 4000 m
zamglenie
Prawdopodobieństwo 30%
od 20 godzina 15 UTC do 21 godzina 06 UTC
Przerywane chmury na wysokości 600 ft

TAF: EPKT 200530Z 2006/2106 07003KT 5000 BR NSC TEMPO 2006/2008 4000 BR PROB30 2015/2106 BKN006

Obserwacja i prognoza pogody dla ponad 4000 lotnisk (raport METAR i TAF).

Dostępne stacje oznaczono żółtymi i czerwonymi punktami na mapie.

Najedź kursorem aby zobaczyć nazwę stacji.

Kliknij aby zobaczyć obserwacje i prognozy pogody.

Aby zmienić mapę: kliknij na zielony przycisk z czarnym krzyżykiem, aby powiększyć; na zielony przycisk z myślnikiem, aby pomniejszyć; na zielone strzałki, aby przejść do map sąsiednich.


METAR-TAF: